createdAt,value
2022-11-24T00:02:04.419Z,7.03
2022-11-24T00:04:34.629Z,7.60
2022-11-24T00:07:04.581Z,6.85
2022-11-24T00:09:34.080Z,6.60
2022-11-24T00:12:03.609Z,6.83
2022-11-24T00:14:33.283Z,6.58
2022-11-24T00:17:03.275Z,6.62
2022-11-24T00:19:33.078Z,7.08
2022-11-24T00:22:02.529Z,7.30
2022-11-24T00:24:32.423Z,9.08
2022-11-24T00:27:02.452Z,10.25
2022-11-24T00:29:32.064Z,8.38
2022-11-24T00:32:03.232Z,9.10
2022-11-24T00:34:33.804Z,8.08
2022-11-24T00:37:03.533Z,8.38
2022-11-24T00:39:33.011Z,8.13
2022-11-24T00:42:02.533Z,7.28
2022-11-24T00:44:32.391Z,10.03
2022-11-24T00:47:02.494Z,9.75
2022-11-24T00:49:34.844Z,9.28
2022-11-24T00:52:04.415Z,8.23
2022-11-24T00:54:34.237Z,8.05
2022-11-24T00:57:04.341Z,7.17
2022-11-24T00:59:33.856Z,7.22
2022-11-24T01:02:03.563Z,8.00
2022-11-24T01:04:33.461Z,7.65
2022-11-24T01:07:03.312Z,7.65
2022-11-24T01:09:32.845Z,7.00
2022-11-24T01:12:02.385Z,7.97
2022-11-24T01:14:33.650Z,7.45
2022-11-24T01:17:03.642Z,6.85
2022-11-24T01:19:33.198Z,7.10
2022-11-24T01:22:02.670Z,7.47
2022-11-24T01:24:32.304Z,7.25
2022-11-24T01:27:02.324Z,7.43
2022-11-24T01:29:31.780Z,7.12
2022-11-24T01:32:01.300Z,6.97
2022-11-24T01:34:30.924Z,6.78
2022-11-24T01:37:00.651Z,6.97
2022-11-24T01:39:30.232Z,6.30
2022-11-24T01:42:03.989Z,7.10
2022-11-24T01:44:35.443Z,6.10
2022-11-24T01:47:35.426Z,6.75
2022-11-24T01:50:06.782Z,6.50
2022-11-24T01:52:39.418Z,6.72
2022-11-24T01:55:11.949Z,6.60
2022-11-24T01:57:47.397Z,6.45
2022-11-24T02:00:18.900Z,6.75
2022-11-24T02:02:48.573Z,6.20
2022-11-24T02:05:21.275Z,6.00
2022-11-24T02:12:52.236Z,6.92
2022-11-24T02:17:50.918Z,5.95
2022-11-24T02:20:20.527Z,5.67
2022-11-24T02:23:18.781Z,6.03
2022-11-24T02:26:08.078Z,5.33
2022-11-24T02:28:38.258Z,6.62
2022-11-24T02:31:08.066Z,5.72
2022-11-24T02:33:38.581Z,6.87
2022-11-24T02:36:08.372Z,6.13
2022-11-24T02:38:38.361Z,5.70
2022-11-24T02:41:11.298Z,6.20
2022-11-24T02:43:46.408Z,6.40
2022-11-24T02:48:44.580Z,5.37
2022-11-24T02:51:14.581Z,5.10
2022-11-24T02:53:44.098Z,5.62
2022-11-24T02:56:13.627Z,5.50
2022-11-24T02:58:43.201Z,6.78
2022-11-24T03:01:12.708Z,6.17
2022-11-24T03:03:42.206Z,5.12
2022-11-24T03:06:11.714Z,6.37
2022-11-24T03:08:42.876Z,6.20
2022-11-24T03:11:12.357Z,6.58
2022-11-24T03:13:41.826Z,5.80
2022-11-24T03:16:11.802Z,5.83
2022-11-24T03:18:41.347Z,5.80
2022-11-24T03:21:10.785Z,5.85
2022-11-24T03:26:16.246Z,6.17
2022-11-24T03:28:46.128Z,6.65
2022-11-24T03:31:16.372Z,6.45
2022-11-24T03:33:46.091Z,6.33
2022-11-24T03:36:15.621Z,6.92
2022-11-24T03:38:45.468Z,7.12
2022-11-24T03:41:14.917Z,7.03
2022-11-24T03:43:45.061Z,5.92
2022-11-24T03:46:14.604Z,6.50
2022-11-24T03:48:44.433Z,6.43
2022-11-24T03:51:14.177Z,7.17
2022-11-24T03:53:43.696Z,7.37
2022-11-24T03:56:13.149Z,6.20
2022-11-24T04:01:11.288Z,5.53
2022-11-24T04:06:09.498Z,5.87
2022-11-24T04:11:07.610Z,5.87
2022-11-24T04:13:37.116Z,5.97
2022-11-24T04:26:04.993Z,5.15
2022-11-24T04:28:34.441Z,6.17
2022-11-24T04:31:05.524Z,5.67
2022-11-24T04:33:35.181Z,4.93
2022-11-24T04:36:04.774Z,4.37
2022-11-24T04:39:19.461Z,4.40
2022-11-24T04:41:06.513Z,4.95
2022-11-24T04:43:40.440Z,5.00
2022-11-24T04:46:08.044Z,4.85
2022-11-24T04:48:37.605Z,4.67
2022-11-24T04:51:07.787Z,6.05
2022-11-24T04:53:37.329Z,5.17
2022-11-24T04:56:07.521Z,6.12
2022-11-24T04:58:37.466Z,4.87
2022-11-24T05:01:10.185Z,4.40
2022-11-24T05:03:40.377Z,4.90
2022-11-24T05:06:12.306Z,5.28
2022-11-24T05:08:41.795Z,5.17
2022-11-24T05:11:11.248Z,5.08
2022-11-24T05:13:40.829Z,5.03
2022-11-24T05:16:10.388Z,5.05
2022-11-24T05:18:40.410Z,4.42
2022-11-24T05:21:09.843Z,5.08
2022-11-24T05:23:39.815Z,4.95
2022-11-24T05:26:09.699Z,5.72
2022-11-24T05:28:39.247Z,5.08
2022-11-24T05:31:08.962Z,5.15
2022-11-24T05:33:38.441Z,5.17
2022-11-24T05:36:08.603Z,5.28
2022-11-24T05:38:38.047Z,4.87
2022-11-24T05:41:07.624Z,5.35
2022-11-24T05:43:37.103Z,5.30
2022-11-24T05:46:06.592Z,5.50
2022-11-24T05:48:36.025Z,5.40
2022-11-24T05:51:09.284Z,5.28
2022-11-24T05:53:37.694Z,5.47
2022-11-24T05:56:07.590Z,4.92
2022-11-24T05:58:37.051Z,5.30
2022-11-24T06:01:09.523Z,5.72
2022-11-24T06:03:38.954Z,4.65
2022-11-24T06:06:08.634Z,4.40
2022-11-24T06:08:38.078Z,4.72
2022-11-24T06:11:19.495Z,4.33
2022-11-24T06:13:49.527Z,5.00
2022-11-24T06:16:21.159Z,4.73
2022-11-24T06:18:52.263Z,4.27
2022-11-24T06:21:21.715Z,4.83
2022-11-24T06:23:51.154Z,4.70
2022-11-24T06:26:20.711Z,4.92
2022-11-24T06:28:50.214Z,4.22
2022-11-24T06:31:19.763Z,4.80
2022-11-24T06:33:49.234Z,5.50
2022-11-24T06:36:18.711Z,4.83
2022-11-24T06:38:48.152Z,5.30
2022-11-24T06:41:18.521Z,4.72
2022-11-24T06:46:17.097Z,7.72
2022-11-24T06:48:48.285Z,9.60
2022-11-24T06:51:18.888Z,13.25
2022-11-24T06:53:49.559Z,14.13
2022-11-24T06:56:21.324Z,9.33
2022-11-24T06:58:52.701Z,7.33
2022-11-24T07:01:25.183Z,6.87
2022-11-24T07:03:57.264Z,8.48
2022-11-24T07:06:28.529Z,9.48
2022-11-24T07:08:57.982Z,10.25
2022-11-24T07:11:27.692Z,9.63
2022-11-24T07:14:00.260Z,10.05
2022-11-24T07:16:30.589Z,9.43
2022-11-24T07:19:01.142Z,11.43
2022-11-24T07:21:33.399Z,10.58
2022-11-24T07:24:03.227Z,9.98
2022-11-24T07:26:34.443Z,10.35
2022-11-24T07:29:05.516Z,9.88
2022-11-24T07:31:35.144Z,9.33
2022-11-24T07:34:04.687Z,10.72
2022-11-24T07:36:34.231Z,10.70
2022-11-24T07:39:03.718Z,11.60
2022-11-24T07:41:33.158Z,14.15
2022-11-24T07:44:02.651Z,15.53
2022-11-24T07:46:32.154Z,14.50
2022-11-24T07:49:01.584Z,12.83
2022-11-24T07:51:31.001Z,11.35
2022-11-24T07:54:00.499Z,9.93
2022-11-24T07:56:30.002Z,10.13
2022-11-24T07:58:59.437Z,9.60
2022-11-24T08:01:29.136Z,10.05
2022-11-24T08:03:58.866Z,8.90
2022-11-24T08:06:38.172Z,10.60
2022-11-24T08:09:01.056Z,10.95
2022-11-24T08:11:31.770Z,10.78
2022-11-24T08:14:01.171Z,10.95
2022-11-24T08:16:30.802Z,9.45
2022-11-24T08:19:00.427Z,10.03
2022-11-24T08:21:29.841Z,9.35
2022-11-24T08:23:59.907Z,8.18
2022-11-24T08:26:29.402Z,7.33
2022-11-24T08:29:00.130Z,7.28
2022-11-24T08:31:32.099Z,5.85
2022-11-24T08:34:02.958Z,6.80
2022-11-24T08:36:33.034Z,6.80
2022-11-24T08:39:02.975Z,7.10
2022-11-24T08:41:33.497Z,6.85
2022-11-24T08:44:03.085Z,7.78
2022-11-24T08:46:32.544Z,8.53
2022-11-24T08:49:02.198Z,8.65
2022-11-24T08:51:31.734Z,7.87
2022-11-24T08:54:02.676Z,7.00
2022-11-24T08:56:34.096Z,7.30
2022-11-24T08:59:03.745Z,6.85
2022-11-24T09:01:34.346Z,6.75
2022-11-24T09:04:03.824Z,6.35
2022-11-24T09:06:33.305Z,6.33
2022-11-24T09:09:02.763Z,9.05
2022-11-24T09:11:34.066Z,10.93
2022-11-24T09:14:03.643Z,9.10
2022-11-24T09:16:33.227Z,7.20
2022-11-24T09:19:08.344Z,7.17
2022-11-24T09:21:39.206Z,6.78
2022-11-24T09:24:09.011Z,6.80
2022-11-24T09:26:46.165Z,7.08
2022-11-24T09:29:12.845Z,7.37
2022-11-24T09:31:42.559Z,7.65
2022-11-24T09:34:15.605Z,6.85
2022-11-24T09:39:14.063Z,6.40
2022-11-24T09:42:09.048Z,7.05
2022-11-24T09:44:57.894Z,9.13
2022-11-24T09:47:48.859Z,8.88
2022-11-24T09:50:24.071Z,8.55
2022-11-24T09:53:16.136Z,11.97
2022-11-24T09:55:54.868Z,11.43
2022-11-24T09:58:45.815Z,7.33
2022-11-24T10:01:21.573Z,6.87
2022-11-24T10:03:58.610Z,5.87
2022-11-24T10:06:48.523Z,5.70
2022-11-24T10:09:37.681Z,5.72
2022-11-24T10:12:13.122Z,6.35
2022-11-24T10:15:18.895Z,6.62
2022-11-24T10:23:46.008Z,5.25
2022-11-24T10:28:48.852Z,4.72
2022-11-24T10:31:27.311Z,4.47
2022-11-24T10:34:08.421Z,3.33
2022-11-24T10:36:59.676Z,4.30
2022-11-24T10:40:00.859Z,4.55
2022-11-24T10:42:38.615Z,4.17
2022-11-24T10:47:38.977Z,3.37
2022-11-24T10:50:23.546Z,3.77
2022-11-24T10:53:05.909Z,4.03
2022-11-24T10:55:58.037Z,3.90
2022-11-24T10:58:38.577Z,4.13
2022-11-24T11:03:51.233Z,3.05
2022-11-24T11:06:23.445Z,2.75
2022-11-24T11:08:56.104Z,3.17
2022-11-24T11:11:31.686Z,3.33
2022-11-24T11:14:06.461Z,3.85
2022-11-24T11:20:01.716Z,2.60
2022-11-24T11:22:27.805Z,3.33
2022-11-24T11:25:12.705Z,3.63
2022-11-24T11:27:43.377Z,2.95
2022-11-24T11:35:33.812Z,3.27
2022-11-24T11:38:06.937Z,3.50
2022-11-24T11:40:37.583Z,3.60
2022-11-24T11:43:18.939Z,4.10
2022-11-24T11:45:51.598Z,3.55
2022-11-24T11:48:32.462Z,2.90
2022-11-24T11:51:37.098Z,2.92
2022-11-24T11:54:27.488Z,3.80
2022-11-24T11:57:00.061Z,2.90
2022-11-24T11:59:32.642Z,3.40
2022-11-24T12:02:29.868Z,3.80
2022-11-24T12:05:22.704Z,4.40
2022-11-24T12:08:22.741Z,3.00
2022-11-24T12:10:58.248Z,3.25
2022-11-24T12:13:36.705Z,2.60
2022-11-24T12:16:14.960Z,3.55
2022-11-24T12:18:57.490Z,3.83
2022-11-24T12:21:40.513Z,3.77
2022-11-24T12:24:18.867Z,3.45
2022-11-24T12:27:06.364Z,4.22
2022-11-24T12:29:44.796Z,3.50
2022-11-24T12:32:35.650Z,3.65
2022-11-24T12:35:14.152Z,3.67
2022-11-24T12:38:04.425Z,4.22
2022-11-24T12:40:45.136Z,3.60
2022-11-24T12:43:40.297Z,3.53
2022-11-24T12:46:18.702Z,3.83
2022-11-24T12:49:09.806Z,4.50
2022-11-24T12:51:45.231Z,3.05
2022-11-24T12:54:17.756Z,3.50
2022-11-24T12:59:50.144Z,3.12
2022-11-24T13:02:31.488Z,3.27
2022-11-24T13:05:20.636Z,2.90
2022-11-24T13:07:54.788Z,2.52
2022-11-24T13:10:54.219Z,3.60
2022-11-24T13:13:03.843Z,3.67
2022-11-24T13:15:46.090Z,3.20
2022-11-24T13:18:12.445Z,3.42
2022-11-24T13:20:41.838Z,3.08
2022-11-24T13:23:15.122Z,2.77
2022-11-24T13:25:48.014Z,2.95
2022-11-24T13:28:39.453Z,3.22
2022-11-24T13:30:56.475Z,2.85
2022-11-24T13:33:32.451Z,3.45
2022-11-24T13:36:07.894Z,3.37
2022-11-24T13:38:46.514Z,2.98
2022-11-24T13:41:37.602Z,2.85
2022-11-24T13:44:20.804Z,3.25
2022-11-24T13:47:08.322Z,3.52
2022-11-24T13:49:42.999Z,3.12
2022-11-24T13:52:38.486Z,3.87
2022-11-24T13:55:17.039Z,2.90
2022-11-24T13:57:49.456Z,4.03
2022-11-24T14:00:31.039Z,8.23
2022-11-24T14:03:06.328Z,3.83
2022-11-24T14:05:41.311Z,3.95
2022-11-24T14:08:13.821Z,3.50
2022-11-24T14:10:44.777Z,3.00
2022-11-24T14:13:26.576Z,3.77
2022-11-24T14:16:08.701Z,3.50
2022-11-24T14:18:43.657Z,3.47
2022-11-24T14:21:25.703Z,4.37
2022-11-24T14:23:58.288Z,7.33
2022-11-24T14:26:40.051Z,5.22
2022-11-24T14:29:20.291Z,3.62
2022-11-24T14:32:01.517Z,4.17
2022-11-24T14:34:33.743Z,3.72
2022-11-24T14:37:03.560Z,4.22
2022-11-24T14:39:36.195Z,4.47
2022-11-24T14:42:20.971Z,4.25
2022-11-24T14:45:04.103Z,4.45
2022-11-24T14:50:11.135Z,4.40
2022-11-24T14:52:46.541Z,4.80
2022-11-24T14:55:35.523Z,4.47
2022-11-24T14:58:08.045Z,4.20
2022-11-24T15:00:37.527Z,5.03
2022-11-24T15:03:17.326Z,5.62
2022-11-24T15:05:59.517Z,6.10
2022-11-24T15:08:32.026Z,5.95
2022-11-24T15:11:04.404Z,5.50
2022-11-24T15:13:37.384Z,5.80
2022-11-24T15:16:17.958Z,5.28
2022-11-24T15:19:02.168Z,6.45
2022-11-24T15:21:36.796Z,5.47
2022-11-24T15:24:17.622Z,5.47
2022-11-24T15:26:47.640Z,4.90
2022-11-24T15:29:17.113Z,4.40
2022-11-24T15:31:52.401Z,5.95
2022-11-24T15:34:17.662Z,7.30
2022-11-24T15:36:47.055Z,7.08
2022-11-24T15:39:16.485Z,6.28
2022-11-24T15:41:47.710Z,6.15
2022-11-24T15:44:17.132Z,6.03
2022-11-24T15:46:46.640Z,6.00
2022-11-24T15:49:16.266Z,6.37
2022-11-24T15:51:47.623Z,7.08
2022-11-24T15:54:19.610Z,8.13
2022-11-24T15:56:49.046Z,39.17
2022-11-24T15:59:21.076Z,24.80
2022-11-24T16:01:50.819Z,14.55
2022-11-24T16:04:20.809Z,10.98
2022-11-24T16:06:50.260Z,20.48
2022-11-24T16:09:19.713Z,15.25
2022-11-24T16:11:49.147Z,13.62
2022-11-24T16:14:18.772Z,12.03
2022-11-24T16:16:48.646Z,9.18
2022-11-24T16:19:18.160Z,7.83
2022-11-24T16:21:51.343Z,9.45
2022-11-24T16:24:20.858Z,8.28
2022-11-24T16:26:50.367Z,8.60
2022-11-24T16:29:21.190Z,8.83
2022-11-24T16:31:52.311Z,7.45
2022-11-24T16:34:21.777Z,21.03
2022-11-24T16:36:51.283Z,17.40
2022-11-24T16:39:20.812Z,16.85
2022-11-24T16:41:50.253Z,16.65
2022-11-24T16:44:20.079Z,14.73
2022-11-24T16:46:49.722Z,12.18
2022-11-24T16:49:19.227Z,12.13
2022-11-24T16:51:48.759Z,12.43
2022-11-24T16:54:18.278Z,11.48
2022-11-24T16:56:47.774Z,11.35
2022-11-24T16:59:17.359Z,14.15
2022-11-24T17:01:48.675Z,13.38
2022-11-24T17:04:18.823Z,16.32
2022-11-24T17:06:48.256Z,23.18
2022-11-24T17:09:18.883Z,28.20
2022-11-24T17:11:48.377Z,29.92
2022-11-24T17:14:17.845Z,26.95
2022-11-24T17:16:47.335Z,25.45
2022-11-24T17:19:16.815Z,22.50
2022-11-24T17:21:46.279Z,23.15
2022-11-24T17:24:17.423Z,23.95
2022-11-24T17:26:49.137Z,22.82
2022-11-24T17:29:18.671Z,21.40
2022-11-24T17:31:48.214Z,21.62
2022-11-24T17:34:17.855Z,20.90
2022-11-24T17:36:47.362Z,18.67
2022-11-24T17:39:20.317Z,19.23
2022-11-24T17:41:48.021Z,18.75
2022-11-24T17:44:17.481Z,20.43
2022-11-24T17:46:47.485Z,24.10
2022-11-24T17:49:18.419Z,28.47
2022-11-24T17:51:49.721Z,29.05
2022-11-24T17:56:51.139Z,32.60
2022-11-24T17:59:20.581Z,28.83
2022-11-24T18:01:50.144Z,27.60
2022-11-24T18:04:19.715Z,32.67
2022-11-24T18:06:49.141Z,29.80
2022-11-24T18:09:18.651Z,28.35
2022-11-24T18:11:48.190Z,29.00
2022-11-24T18:14:17.773Z,29.63
2022-11-24T18:16:47.246Z,30.05
2022-11-24T18:19:16.750Z,33.85
2022-11-24T18:21:46.755Z,41.30
2022-11-24T18:24:22.647Z,46.37
2022-11-24T18:26:50.664Z,51.13
2022-11-24T18:29:20.102Z,47.48
2022-11-24T18:31:49.571Z,40.43
2022-11-24T18:34:18.991Z,37.78
2022-11-24T18:36:50.055Z,31.95
2022-11-24T18:39:19.749Z,29.52
2022-11-24T18:41:49.202Z,29.00
2022-11-24T18:44:18.721Z,30.97
2022-11-24T18:46:50.161Z,35.85
2022-11-24T18:49:19.627Z,33.05
2022-11-24T18:51:49.076Z,31.52
2022-11-24T18:54:18.506Z,31.75
2022-11-24T18:56:47.983Z,34.30
2022-11-24T18:59:17.491Z,32.43
2022-11-24T19:01:47.084Z,29.35
2022-11-24T19:04:16.999Z,32.15
2022-11-24T19:06:46.753Z,28.87
2022-11-24T19:09:20.470Z,27.82
2022-11-24T19:11:50.143Z,25.43
2022-11-24T19:14:20.528Z,28.57
2022-11-24T19:16:50.177Z,24.72
2022-11-24T19:19:19.905Z,24.10
2022-11-24T19:21:49.348Z,20.25
2022-11-24T19:24:18.779Z,21.00
2022-11-24T19:26:48.457Z,21.17
2022-11-24T19:29:17.955Z,23.12
2022-11-24T19:31:48.162Z,19.92
2022-11-24T19:34:19.145Z,19.48
2022-11-24T19:36:48.684Z,16.75
2022-11-24T19:39:18.176Z,15.08
2022-11-24T19:41:47.690Z,14.40
2022-11-24T19:44:18.093Z,13.10
2022-11-24T19:46:47.599Z,11.75
2022-11-24T19:49:17.260Z,9.00
2022-11-24T19:51:48.356Z,10.53
2022-11-24T19:54:18.375Z,9.08
2022-11-24T19:56:47.799Z,9.53
2022-11-24T19:59:17.441Z,9.95
2022-11-24T20:01:46.994Z,9.75
2022-11-24T20:04:16.591Z,8.20
2022-11-24T20:06:48.252Z,7.58
2022-11-24T20:09:18.750Z,8.53
2022-11-24T20:11:49.204Z,7.62
2022-11-24T20:14:19.373Z,8.20
2022-11-24T20:16:49.430Z,7.65
2022-11-24T20:19:19.653Z,8.93
2022-11-24T20:21:50.547Z,8.98
2022-11-24T20:24:24.787Z,11.25
2022-11-24T20:26:58.209Z,10.37
2022-11-24T20:29:29.262Z,8.53
2022-11-24T20:31:58.818Z,7.92
2022-11-24T20:34:29.309Z,8.60
2022-11-24T20:39:29.264Z,9.68
2022-11-24T20:41:58.706Z,11.38
2022-11-24T20:44:30.038Z,10.05
2022-11-24T20:47:01.381Z,8.25
2022-11-24T20:49:30.978Z,8.85
2022-11-24T20:52:00.520Z,8.48
2022-11-24T20:54:30.420Z,9.60
2022-11-24T20:57:03.321Z,10.28
2022-11-24T20:59:32.903Z,10.25
2022-11-24T21:02:02.517Z,10.88
2022-11-24T21:04:33.740Z,13.08
2022-11-24T21:07:04.011Z,11.23
2022-11-24T21:09:33.744Z,66.02
2022-11-24T21:12:03.180Z,28.32
2022-11-24T21:14:35.319Z,15.03
2022-11-24T21:19:32.319Z,10.15
2022-11-24T21:22:01.759Z,12.30
2022-11-24T21:24:31.309Z,12.23
2022-11-24T21:27:00.734Z,13.95
2022-11-24T21:29:30.171Z,15.08
2022-11-24T21:31:59.690Z,14.70
2022-11-24T21:34:29.328Z,12.93
2022-11-24T21:36:58.765Z,13.38
2022-11-24T21:39:29.248Z,12.23
2022-11-24T21:41:58.726Z,10.82
2022-11-24T21:44:29.825Z,10.25
2022-11-24T21:46:59.541Z,11.00
2022-11-24T21:49:29.382Z,13.62
2022-11-24T21:51:58.821Z,13.35
2022-11-24T21:54:28.535Z,13.28
2022-11-24T21:56:58.499Z,14.80
2022-11-24T21:59:28.062Z,11.40
2022-11-24T22:01:57.590Z,12.35
2022-11-24T22:04:27.126Z,12.85
2022-11-24T22:06:56.690Z,13.40
2022-11-24T22:09:26.169Z,13.20
2022-11-24T22:11:55.781Z,14.55
2022-11-24T22:14:25.228Z,14.43
2022-11-24T22:16:54.734Z,13.68
2022-11-24T22:19:24.426Z,14.50
2022-11-24T22:21:53.871Z,23.85
2022-11-24T22:24:27.308Z,16.12
2022-11-24T22:26:56.439Z,15.83
2022-11-24T22:29:25.872Z,20.23
2022-11-24T22:31:55.411Z,16.65
2022-11-24T22:34:24.938Z,17.23
2022-11-24T22:36:54.694Z,16.55
2022-11-24T22:39:24.123Z,18.07
2022-11-24T22:41:56.908Z,16.35
2022-11-24T22:44:26.347Z,15.08
2022-11-24T22:46:55.787Z,15.35
2022-11-24T22:49:25.263Z,17.23
2022-11-24T22:51:54.684Z,17.37
2022-11-24T22:54:24.123Z,21.33
2022-11-24T22:56:53.655Z,19.17
2022-11-24T22:59:23.151Z,19.30
2022-11-24T23:01:52.602Z,20.80
2022-11-24T23:04:22.170Z,19.90
2022-11-24T23:06:52.075Z,20.77
2022-11-24T23:09:21.497Z,20.20
2022-11-24T23:11:51.096Z,19.62
2022-11-24T23:14:20.654Z,19.95
2022-11-24T23:16:50.249Z,23.18
2022-11-24T23:19:19.841Z,22.00
2022-11-24T23:21:49.364Z,20.10
2022-11-24T23:24:18.865Z,18.70
2022-11-24T23:26:48.447Z,18.85
2022-11-24T23:29:17.847Z,21.35
2022-11-24T23:31:47.329Z,22.05
2022-11-24T23:34:16.835Z,17.92
2022-11-24T23:36:46.272Z,18.87
2022-11-24T23:39:15.842Z,21.02
2022-11-24T23:41:45.696Z,19.30
2022-11-24T23:44:15.499Z,19.92
2022-11-24T23:46:44.982Z,21.23
2022-11-24T23:49:14.414Z,21.40
2022-11-24T23:51:43.838Z,19.48
2022-11-24T23:54:13.375Z,20.05
2022-11-24T23:56:42.756Z,26.33
2022-11-24T23:59:12.576Z,21.68
